sensor_id;sensor_type;location;lat;lon;timestamp;temperature;humidity
2929;DHT22;1474;51.460;7.150;2023-04-01T00:00:58;9.70;99.90
2929;DHT22;1474;51.460;7.150;2023-04-01T00:03:25;9.70;99.90
2929;DHT22;1474;51.460;7.150;2023-04-01T00:05:53;9.70;99.90
2929;DHT22;1474;51.460;7.150;2023-04-01T00:08:19;9.70;99.90
2929;DHT22;1474;51.460;7.150;2023-04-01T00:10:44;9.70;99.90
2929;DHT22;1474;51.460;7.150;2023-04-01T00:13:11;9.70;99.90
2929;DHT22;1474;51.460;7.150;2023-04-01T00:15:37;9.70;99.90
2929;DHT22;1474;51.460;7.150;2023-04-01T00:18:03;9.60;99.90
2929;DHT22;1474;51.460;7.150;2023-04-01T00:20:29;9.70;99.90
2929;DHT22;1474;51.460;7.150;2023-04-01T00:22:54;9.70;99.90
2929;DHT22;1474;51.460;7.150;2023-04-01T00:25:21;9.70;99.90
2929;DHT22;1474;51.460;7.150;2023-04-01T00:27:47;9.70;99.90
2929;DHT22;1474;51.460;7.150;2023-04-01T00:30:12;9.70;99.90
2929;DHT22;1474;51.460;7.150;2023-04-01T00:32:38;9.70;99.90
2929;DHT22;1474;51.460;7.150;2023-04-01T00:35:04;9.70;99.90
2929;DHT22;1474;51.460;7.150;2023-04-01T00:37:30;9.60;99.90
2929;DHT22;1474;51.460;7.150;2023-04-01T00:39:56;9.60;99.90
2929;DHT22;1474;51.460;7.150;2023-04-01T00:42:22;9.60;99.90
2929;DHT22;1474;51.460;7.150;2023-04-01T00:44:51;9.70;99.90
2929;DHT22;1474;51.460;7.150;2023-04-01T00:47:17;9.60;99.90
2929;DHT22;1474;51.460;7.150;2023-04-01T00:49:46;9.60;99.90
2929;DHT22;1474;51.460;7.150;2023-04-01T00:52:18;9.60;99.90
2929;DHT22;1474;51.460;7.150;2023-04-01T00:54:50;9.60;99.90
2929;DHT22;1474;51.460;7.150;2023-04-01T00:57:30;9.50;99.90
2929;DHT22;1474;51.460;7.150;2023-04-01T00:59:56;9.50;99.90
2929;DHT22;1474;51.460;7.150;2023-04-01T01:02:22;9.50;99.90
2929;DHT22;1474;51.460;7.150;2023-04-01T01:04:48;9.50;99.90
2929;DHT22;1474;51.460;7.150;2023-04-01T01:15:06;9.50;99.90
2929;DHT22;1474;51.460;7.150;2023-04-01T01:17:40;9.50;99.90
2929;DHT22;1474;51.460;7.150;2023-04-01T01:20:24;9.50;99.90
2929;DHT22;1474;51.460;7.150;2023-04-01T01:31:17;9.50;99.90
2929;DHT22;1474;51.460;7.150;2023-04-01T01:36:38;9.40;99.90
2929;DHT22;1474;51.460;7.150;2023-04-01T01:39:08;9.40;99.90
2929;DHT22;1474;51.460;7.150;2023-04-01T01:41:36;9.40;99.90
2929;DHT22;1474;51.460;7.150;2023-04-01T01:44:05;9.40;99.90
2929;DHT22;1474;51.460;7.150;2023-04-01T01:46:31;9.40;99.90
2929;DHT22;1474;51.460;7.150;2023-04-01T01:48:58;9.50;99.90
2929;DHT22;1474;51.460;7.150;2023-04-01T01:51:26;9.50;99.90
2929;DHT22;1474;51.460;7.150;2023-04-01T01:53:52;9.50;99.90
2929;DHT22;1474;51.460;7.150;2023-04-01T01:56:19;9.40;99.90
2929;DHT22;1474;51.460;7.150;2023-04-01T01:58:52;9.50;99.90
2929;DHT22;1474;51.460;7.150;2023-04-01T02:01:24;9.40;99.90
2929;DHT22;1474;51.460;7.150;2023-04-01T02:03:51;9.40;99.90
2929;DHT22;1474;51.460;7.150;2023-04-01T02:06:21;9.50;99.90
2929;DHT22;1474;51.460;7.150;2023-04-01T02:08:56;9.40;99.90
2929;DHT22;1474;51.460;7.150;2023-04-01T02:11:39;9.50;99.90
2929;DHT22;1474;51.460;7.150;2023-04-01T02:14:22;9.40;99.90
2929;DHT22;1474;51.460;7.150;2023-04-01T02:19:26;9.50;99.90
2929;DHT22;1474;51.460;7.150;2023-04-01T02:21:56;9.50;99.90
2929;DHT22;1474;51.460;7.150;2023-04-01T02:24:26;9.50;99.90
2929;DHT22;1474;51.460;7.150;2023-04-01T02:26:53;9.50;99.90
2929;DHT22;1474;51.460;7.150;2023-04-01T02:29:21;9.40;99.90
2929;DHT22;1474;51.460;7.150;2023-04-01T02:31:49;9.50;99.90
2929;DHT22;1474;51.460;7.150;2023-04-01T02:34:15;9.50;99.90
2929;DHT22;1474;51.460;7.150;2023-04-01T02:36:41;9.40;99.90
2929;DHT22;1474;51.460;7.150;2023-04-01T02:39:08;9.40;99.90
2929;DHT22;1474;51.460;7.150;2023-04-01T02:41:42;9.40;99.90
2929;DHT22;1474;51.460;7.150;2023-04-01T02:44:09;9.40;99.90
2929;DHT22;1474;51.460;7.150;2023-04-01T02:46:36;9.40;99.90
2929;DHT22;1474;51.460;7.150;2023-04-01T02:49:02;9.40;99.90
2929;DHT22;1474;51.460;7.150;2023-04-01T02:51:27;9.40;99.90
2929;DHT22;1474;51.460;7.150;2023-04-01T02:53:53;9.40;99.90
2929;DHT22;1474;51.460;7.150;2023-04-01T02:56:18;9.40;99.90
2929;DHT22;1474;51.460;7.150;2023-04-01T02:58:45;9.40;99.90
2929;DHT22;1474;51.460;7.150;2023-04-01T03:01:11;9.30;99.90
2929;DHT22;1474;51.460;7.150;2023-04-01T03:03:37;9.30;99.90
2929;DHT22;1474;51.460;7.150;2023-04-01T03:06:07;9.30;99.90
2929;DHT22;1474;51.460;7.150;2023-04-01T03:08:33;9.40;99.90
2929;DHT22;1474;51.460;7.150;2023-04-01T03:10:58;9.40;99.90
2929;DHT22;1474;51.460;7.150;2023-04-01T03:13:24;9.40;99.90
2929;DHT22;1474;51.460;7.150;2023-04-01T03:15:50;9.40;99.90
2929;DHT22;1474;51.460;7.150;2023-04-01T03:18:15;9.40;99.90
2929;DHT22;1474;51.460;7.150;2023-04-01T03:20:41;9.40;99.90
2929;DHT22;1474;51.460;7.150;2023-04-01T03:23:07;9.40;99.90
2929;DHT22;1474;51.460;7.150;2023-04-01T03:25:33;9.40;99.90
2929;DHT22;1474;51.460;7.150;2023-04-01T03:27:59;9.50;99.90
2929;DHT22;1474;51.460;7.150;2023-04-01T03:30:25;9.50;99.90
2929;DHT22;1474;51.460;7.150;2023-04-01T03:32:51;9.50;99.90
2929;DHT22;1474;51.460;7.150;2023-04-01T03:35:17;9.40;99.90
2929;DHT22;1474;51.460;7.150;2023-04-01T03:37:43;9.40;99.90
2929;DHT22;1474;51.460;7.150;2023-04-01T03:40:09;9.40;99.90
2929;DHT22;1474;51.460;7.150;2023-04-01T03:42:35;9.40;99.90
2929;DHT22;1474;51.460;7.150;2023-04-01T03:45:02;9.40;99.90
2929;DHT22;1474;51.460;7.150;2023-04-01T03:47:28;9.40;99.90
2929;DHT22;1474;51.460;7.150;2023-04-01T03:49:53;9.40;99.90
2929;DHT22;1474;51.460;7.150;2023-04-01T03:52:19;9.40;99.90
2929;DHT22;1474;51.460;7.150;2023-04-01T03:54:45;9.40;99.90
2929;DHT22;1474;51.460;7.150;2023-04-01T03:57:11;9.40;99.90
2929;DHT22;1474;51.460;7.150;2023-04-01T03:59:37;9.30;99.90
2929;DHT22;1474;51.460;7.150;2023-04-01T04:02:03;9.30;99.90
2929;DHT22;1474;51.460;7.150;2023-04-01T04:04:29;9.40;99.90
2929;DHT22;1474;51.460;7.150;2023-04-01T04:06:55;9.40;99.90
2929;DHT22;1474;51.460;7.150;2023-04-01T04:09:22;9.40;99.90
2929;DHT22;1474;51.460;7.150;2023-04-01T04:11:48;9.40;99.90
2929;DHT22;1474;51.460;7.150;2023-04-01T04:14:14;9.40;99.90
2929;DHT22;1474;51.460;7.150;2023-04-01T04:16:40;9.40;99.90
2929;DHT22;1474;51.460;7.150;2023-04-01T04:19:06;9.40;99.90
2929;DHT22;1474;51.460;7.150;2023-04-01T04:21:31;9.40;99.90
2929;DHT22;1474;51.460;7.150;2023-04-01T04:23:59;9.40;99.90
2929;DHT22;1474;51.460;7.150;2023-04-01T04:26:26;9.40;99.90
2929;DHT22;1474;51.460;7.150;2023-04-01T04:28:51;9.40;99.90
2929;DHT22;1474;51.460;7.150;2023-04-01T04:31:21;9.40;99.90
2929;DHT22;1474;51.460;7.150;2023-04-01T04:33:48;9.40;99.90
2929;DHT22;1474;51.460;7.150;2023-04-01T04:36:14;9.40;99.90
2929;DHT22;1474;51.460;7.150;2023-04-01T04:38:40;9.40;99.90
2929;DHT22;1474;51.460;7.150;2023-04-01T04:41:10;9.50;99.90
2929;DHT22;1474;51.460;7.150;2023-04-01T04:43:37;9.40;99.90
2929;DHT22;1474;51.460;7.150;2023-04-01T04:46:08;9.40;99.90
2929;DHT22;1474;51.460;7.150;2023-04-01T04:48:33;9.40;99.90
2929;DHT22;1474;51.460;7.150;2023-04-01T04:50:59;9.40;99.90
2929;DHT22;1474;51.460;7.150;2023-04-01T04:53:26;9.50;99.90
2929;DHT22;1474;51.460;7.150;2023-04-01T04:55:52;9.40;99.90
2929;DHT22;1474;51.460;7.150;2023-04-01T04:58:18;9.40;99.90
2929;DHT22;1474;51.460;7.150;2023-04-01T05:00:44;9.50;99.90
2929;DHT22;1474;51.460;7.150;2023-04-01T05:03:11;9.50;99.90
2929;DHT22;1474;51.460;7.150;2023-04-01T05:05:37;9.50;99.90
2929;DHT22;1474;51.460;7.150;2023-04-01T05:08:03;9.50;99.90
2929;DHT22;1474;51.460;7.150;2023-04-01T05:10:29;9.50;99.90
2929;DHT22;1474;51.460;7.150;2023-04-01T05:12:56;9.50;99.90
2929;DHT22;1474;51.460;7.150;2023-04-01T05:15:21;9.50;99.90
2929;DHT22;1474;51.460;7.150;2023-04-01T05:17:47;9.50;99.90
2929;DHT22;1474;51.460;7.150;2023-04-01T05:20:13;9.50;99.90
2929;DHT22;1474;51.460;7.150;2023-04-01T05:22:40;9.50;99.90
2929;DHT22;1474;51.460;7.150;2023-04-01T05:25:06;9.50;99.90
2929;DHT22;1474;51.460;7.150;2023-04-01T05:27:32;9.50;99.90
2929;DHT22;1474;51.460;7.150;2023-04-01T05:29:58;9.50;99.90
2929;DHT22;1474;51.460;7.150;2023-04-01T05:32:24;9.50;99.90
2929;DHT22;1474;51.460;7.150;2023-04-01T05:34:53;9.50;99.90
2929;DHT22;1474;51.460;7.150;2023-04-01T05:37:19;9.50;99.90
2929;DHT22;1474;51.460;7.150;2023-04-01T05:39:45;9.50;99.90
2929;DHT22;1474;51.460;7.150;2023-04-01T05:42:11;9.50;99.90
2929;DHT22;1474;51.460;7.150;2023-04-01T05:44:37;9.60;99.90
2929;DHT22;1474;51.460;7.150;2023-04-01T05:47:03;9.60;99.90
2929;DHT22;1474;51.460;7.150;2023-04-01T05:49:29;9.60;99.90
2929;DHT22;1474;51.460;7.150;2023-04-01T05:51:56;9.60;99.90
2929;DHT22;1474;51.460;7.150;2023-04-01T05:54:21;9.60;99.90
2929;DHT22;1474;51.460;7.150;2023-04-01T05:56:47;9.60;99.90
2929;DHT22;1474;51.460;7.150;2023-04-01T05:59:13;9.60;99.90
2929;DHT22;1474;51.460;7.150;2023-04-01T06:01:39;9.60;99.90
2929;DHT22;1474;51.460;7.150;2023-04-01T06:04:05;9.60;99.90
2929;DHT22;1474;51.460;7.150;2023-04-01T06:06:32;9.60;99.90
2929;DHT22;1474;51.460;7.150;2023-04-01T06:09:06;9.60;99.90
2929;DHT22;1474;51.460;7.150;2023-04-01T06:17:49;9.60;99.90
2929;DHT22;1474;51.460;7.150;2023-04-01T06:20:30;9.60;99.90
2929;DHT22;1474;51.460;7.150;2023-04-01T06:25:55;9.60;99.90
2929;DHT22;1474;51.460;7.150;2023-04-01T06:40:25;9.70;99.90
2929;DHT22;1474;51.460;7.150;2023-04-01T06:43:24;9.70;99.90
2929;DHT22;1474;51.460;7.150;2023-04-01T06:46:07;9.70;99.90
2929;DHT22;1474;51.460;7.150;2023-04-01T06:54:10;9.60;99.90
2929;DHT22;1474;51.460;7.150;2023-04-01T06:56:40;9.60;99.90
2929;DHT22;1474;51.460;7.150;2023-04-01T06:59:24;9.60;99.90
2929;DHT22;1474;51.460;7.150;2023-04-01T07:01:57;9.60;99.90
2929;DHT22;1474;51.460;7.150;2023-04-01T07:04:32;9.60;99.90
2929;DHT22;1474;51.460;7.150;2023-04-01T07:07:05;9.70;99.90
2929;DHT22;1474;51.460;7.150;2023-04-01T07:09:38;9.60;99.90
2929;DHT22;1474;51.460;7.150;2023-04-01T07:12:51;9.60;99.90
2929;DHT22;1474;51.460;7.150;2023-04-01T07:14:53;9.60;99.90
2929;DHT22;1474;51.460;7.150;2023-04-01T07:17:27;9.60;99.90
2929;DHT22;1474;51.460;7.150;2023-04-01T07:20:03;9.60;99.90
2929;DHT22;1474;51.460;7.150;2023-04-01T07:22:38;9.70;99.90
2929;DHT22;1474;51.460;7.150;2023-04-01T07:25:26;9.70;99.90
2929;DHT22;1474;51.460;7.150;2023-04-01T07:27:56;9.80;99.90
2929;DHT22;1474;51.460;7.150;2023-04-01T07:30:23;9.70;99.90
2929;DHT22;1474;51.460;7.150;2023-04-01T07:33:01;9.80;99.90
2929;DHT22;1474;51.460;7.150;2023-04-01T07:43:22;9.90;99.90
2929;DHT22;1474;51.460;7.150;2023-04-01T07:48:54;9.80;99.90
2929;DHT22;1474;51.460;7.150;2023-04-01T07:51:27;9.90;99.90
2929;DHT22;1474;51.460;7.150;2023-04-01T07:54:13;9.90;99.90
2929;DHT22;1474;51.460;7.150;2023-04-01T07:56:55;9.90;99.90
2929;DHT22;1474;51.460;7.150;2023-04-01T07:59:26;9.90;99.90
2929;DHT22;1474;51.460;7.150;2023-04-01T08:07:36;10.00;99.90
2929;DHT22;1474;51.460;7.150;2023-04-01T08:13:13;10.00;99.90
2929;DHT22;1474;51.460;7.150;2023-04-01T08:21:20;10.10;99.90
2929;DHT22;1474;51.460;7.150;2023-04-01T08:23:48;10.10;99.90
2929;DHT22;1474;51.460;7.150;2023-04-01T08:28:50;10.10;99.90
2929;DHT22;1474;51.460;7.150;2023-04-01T08:31:30;10.10;99.90
2929;DHT22;1474;51.460;7.150;2023-04-01T08:33:57;10.10;99.90
2929;DHT22;1474;51.460;7.150;2023-04-01T08:36:35;10.20;99.90
2929;DHT22;1474;51.460;7.150;2023-04-01T08:39:09;10.10;99.90
2929;DHT22;1474;51.460;7.150;2023-04-01T08:55:25;10.10;99.90
2929;DHT22;1474;51.460;7.150;2023-04-01T09:01:58;10.20;99.90
2929;DHT22;1474;51.460;7.150;2023-04-01T09:20:47;10.30;99.90
2929;DHT22;1474;51.460;7.150;2023-04-01T09:37:17;10.30;99.90
2929;DHT22;1474;51.460;7.150;2023-04-01T09:39:56;10.30;99.90
2929;DHT22;1474;51.460;7.150;2023-04-01T09:57:04;10.40;99.90
2929;DHT22;1474;51.460;7.150;2023-04-01T10:24:17;10.80;99.90
2929;DHT22;1474;51.460;7.150;2023-04-01T10:33:07;10.80;99.90
2929;DHT22;1474;51.460;7.150;2023-04-01T10:41:43;11.00;99.90
2929;DHT22;1474;51.460;7.150;2023-04-01T11:08:25;11.00;99.90
2929;DHT22;1474;51.460;7.150;2023-04-01T11:14:09;10.90;99.90
2929;DHT22;1474;51.460;7.150;2023-04-01T11:33:43;10.90;99.90
2929;DHT22;1474;51.460;7.150;2023-04-01T11:38:57;11.00;99.90
2929;DHT22;1474;51.460;7.150;2023-04-01T11:41:52;11.00;99.90
2929;DHT22;1474;51.460;7.150;2023-04-01T11:44:27;11.00;99.90
2929;DHT22;1474;51.460;7.150;2023-04-01T11:47:19;11.10;99.90
2929;DHT22;1474;51.460;7.150;2023-04-01T12:01:26;11.20;99.90
2929;DHT22;1474;51.460;7.150;2023-04-01T12:04:06;11.20;99.90
2929;DHT22;1474;51.460;7.150;2023-04-01T12:12:41;11.30;99.90
2929;DHT22;1474;51.460;7.150;2023-04-01T12:15:30;11.30;99.90
2929;DHT22;1474;51.460;7.150;2023-04-01T12:18:17;11.40;99.90
2929;DHT22;1474;51.460;7.150;2023-04-01T12:40:02;11.40;99.90
2929;DHT22;1474;51.460;7.150;2023-04-01T13:00:03;11.60;99.90
2929;DHT22;1474;51.460;7.150;2023-04-01T13:11:16;11.40;99.90
2929;DHT22;1474;51.460;7.150;2023-04-01T13:19:32;11.40;99.90
2929;DHT22;1474;51.460;7.150;2023-04-01T13:22:20;11.30;99.90
2929;DHT22;1474;51.460;7.150;2023-04-01T13:24:55;11.30;99.90
2929;DHT22;1474;51.460;7.150;2023-04-01T13:36:02;11.10;99.90
2929;DHT22;1474;51.460;7.150;2023-04-01T13:41:14;11.00;99.90
2929;DHT22;1474;51.460;7.150;2023-04-01T13:44:16;11.00;99.90
2929;DHT22;1474;51.460;7.150;2023-04-01T13:49:47;11.00;99.90
2929;DHT22;1474;51.460;7.150;2023-04-01T13:55:39;11.00;99.90
2929;DHT22;1474;51.460;7.150;2023-04-01T14:01:10;11.00;99.90
2929;DHT22;1474;51.460;7.150;2023-04-01T14:06:38;11.00;99.90
2929;DHT22;1474;51.460;7.150;2023-04-01T14:15:07;11.00;99.90
2929;DHT22;1474;51.460;7.150;2023-04-01T14:47:08;11.00;99.90
2929;DHT22;1474;51.460;7.150;2023-04-01T14:49:37;11.00;99.90
2929;DHT22;1474;51.460;7.150;2023-04-01T14:52:41;11.00;99.90
2929;DHT22;1474;51.460;7.150;2023-04-01T14:58:13;11.20;99.90
2929;DHT22;1474;51.460;7.150;2023-04-01T15:03:30;11.10;99.90
2929;DHT22;1474;51.460;7.150;2023-04-01T15:06:09;11.30;99.90
2929;DHT22;1474;51.460;7.150;2023-04-01T15:11:25;11.20;99.90
2929;DHT22;1474;51.460;7.150;2023-04-01T15:16:41;11.20;99.90
2929;DHT22;1474;51.460;7.150;2023-04-01T15:19:38;11.10;99.90
2929;DHT22;1474;51.460;7.150;2023-04-01T15:27:19;11.10;99.90
2929;DHT22;1474;51.460;7.150;2023-04-01T15:32:51;11.10;99.90
2929;DHT22;1474;51.460;7.150;2023-04-01T15:41:17;11.20;99.90
2929;DHT22;1474;51.460;7.150;2023-04-01T15:43:47;11.30;99.90
2929;DHT22;1474;51.460;7.150;2023-04-01T15:49:56;11.30;99.90
2929;DHT22;1474;51.460;7.150;2023-04-01T15:52:34;11.30;99.90
2929;DHT22;1474;51.460;7.150;2023-04-01T15:57:50;11.20;99.90
2929;DHT22;1474;51.460;7.150;2023-04-01T16:00:20;11.20;99.90
2929;DHT22;1474;51.460;7.150;2023-04-01T16:16:50;11.20;99.90
2929;DHT22;1474;51.460;7.150;2023-04-01T16:19:47;11.10;99.90
2929;DHT22;1474;51.460;7.150;2023-04-01T16:22:45;11.10;99.90
2929;DHT22;1474;51.460;7.150;2023-04-01T16:25:40;11.10;99.90
2929;DHT22;1474;51.460;7.150;2023-04-01T16:28:42;11.00;99.90
2929;DHT22;1474;51.460;7.150;2023-04-01T16:31:30;11.10;99.90
2929;DHT22;1474;51.460;7.150;2023-04-01T16:34:27;11.00;99.90
2929;DHT22;1474;51.460;7.150;2023-04-01T16:37:15;11.00;99.90
2929;DHT22;1474;51.460;7.150;2023-04-01T16:43:05;11.00;99.90
2929;DHT22;1474;51.460;7.150;2023-04-01T16:48:22;11.00;99.90
2929;DHT22;1474;51.460;7.150;2023-04-01T16:51:04;10.90;99.90
2929;DHT22;1474;51.460;7.150;2023-04-01T16:59:37;10.90;99.90
2929;DHT22;1474;51.460;7.150;2023-04-01T17:20:50;10.90;99.90
2929;DHT22;1474;51.460;7.150;2023-04-01T17:29:17;10.90;99.90
2929;DHT22;1474;51.460;7.150;2023-04-01T17:34:30;10.90;99.90
2929;DHT22;1474;51.460;7.150;2023-04-01T17:40:06;10.90;99.90
2929;DHT22;1474;51.460;7.150;2023-04-01T17:42:42;10.80;99.90
2929;DHT22;1474;51.460;7.150;2023-04-01T17:45:27;10.80;99.90
2929;DHT22;1474;51.460;7.150;2023-04-01T17:56:08;10.80;99.90
2929;DHT22;1474;51.460;7.150;2023-04-01T18:07:50;10.70;99.90
2929;DHT22;1474;51.460;7.150;2023-04-01T18:23:51;10.70;99.90
2929;DHT22;1474;51.460;7.150;2023-04-01T18:26:40;10.80;99.90
2929;DHT22;1474;51.460;7.150;2023-04-01T18:29:26;10.80;99.90
2929;DHT22;1474;51.460;7.150;2023-04-01T18:32:10;10.70;99.90
2929;DHT22;1474;51.460;7.150;2023-04-01T18:37:31;10.80;99.90
2929;DHT22;1474;51.460;7.150;2023-04-01T18:40:22;10.80;99.90
2929;DHT22;1474;51.460;7.150;2023-04-01T18:43:30;10.80;99.90
2929;DHT22;1474;51.460;7.150;2023-04-01T18:46:36;10.80;99.90
2929;DHT22;1474;51.460;7.150;2023-04-01T18:49:07;10.80;99.90
2929;DHT22;1474;51.460;7.150;2023-04-01T18:52:52;10.70;99.90
2929;DHT22;1474;51.460;7.150;2023-04-01T18:57:27;10.80;99.90
2929;DHT22;1474;51.460;7.150;2023-04-01T19:00:13;10.70;99.90
2929;DHT22;1474;51.460;7.150;2023-04-01T19:02:50;10.70;99.90
2929;DHT22;1474;51.460;7.150;2023-04-01T19:05:42;10.70;99.90
2929;DHT22;1474;51.460;7.150;2023-04-01T19:08:28;10.70;99.90
2929;DHT22;1474;51.460;7.150;2023-04-01T19:11:09;10.60;99.90
2929;DHT22;1474;51.460;7.150;2023-04-01T19:13:59;10.70;99.90
2929;DHT22;1474;51.460;7.150;2023-04-01T19:16:54;10.70;99.90
2929;DHT22;1474;51.460;7.150;2023-04-01T19:19:29;10.60;99.90
2929;DHT22;1474;51.460;7.150;2023-04-01T19:27:49;10.60;99.90
2929;DHT22;1474;51.460;7.150;2023-04-01T19:38:38;10.40;99.90
2929;DHT22;1474;51.460;7.150;2023-04-01T19:43:48;10.30;99.90
2929;DHT22;1474;51.460;7.150;2023-04-01T19:51:28;10.30;99.90
2929;DHT22;1474;51.460;7.150;2023-04-01T19:56:23;10.20;99.90
2929;DHT22;1474;51.460;7.150;2023-04-01T19:58:56;10.20;99.90
2929;DHT22;1474;51.460;7.150;2023-04-01T20:01:34;10.10;99.90
2929;DHT22;1474;51.460;7.150;2023-04-01T20:04:10;10.00;99.90
2929;DHT22;1474;51.460;7.150;2023-04-01T20:14:45;9.90;99.90
2929;DHT22;1474;51.460;7.150;2023-04-01T20:17:42;9.90;99.90
2929;DHT22;1474;51.460;7.150;2023-04-01T20:25:30;9.80;99.90
2929;DHT22;1474;51.460;7.150;2023-04-01T20:30:52;9.70;99.90
2929;DHT22;1474;51.460;7.150;2023-04-01T20:36:34;9.60;99.90
2929;DHT22;1474;51.460;7.150;2023-04-01T20:45:18;9.50;99.90
2929;DHT22;1474;51.460;7.150;2023-04-01T20:53:27;9.40;99.90
2929;DHT22;1474;51.460;7.150;2023-04-01T20:56:06;9.40;99.90
2929;DHT22;1474;51.460;7.150;2023-04-01T21:01:04;9.20;99.90
2929;DHT22;1474;51.460;7.150;2023-04-01T21:06:19;9.20;99.90
2929;DHT22;1474;51.460;7.150;2023-04-01T21:09:14;9.20;99.90
2929;DHT22;1474;51.460;7.150;2023-04-01T21:25:56;9.00;99.90
2929;DHT22;1474;51.460;7.150;2023-04-01T21:28:43;8.90;99.90
2929;DHT22;1474;51.460;7.150;2023-04-01T21:31:53;8.90;99.90
2929;DHT22;1474;51.460;7.150;2023-04-01T21:39:59;8.70;99.90
2929;DHT22;1474;51.460;7.150;2023-04-01T21:43:23;8.60;99.90
2929;DHT22;1474;51.460;7.150;2023-04-01T21:48:34;8.50;99.90
2929;DHT22;1474;51.460;7.150;2023-04-01T21:53:59;8.50;99.90
2929;DHT22;1474;51.460;7.150;2023-04-01T21:59:51;8.30;99.90
2929;DHT22;1474;51.460;7.150;2023-04-01T22:02:45;8.20;99.90
2929;DHT22;1474;51.460;7.150;2023-04-01T22:05:31;8.20;99.90
2929;DHT22;1474;51.460;7.150;2023-04-01T22:08:12;8.20;99.90
2929;DHT22;1474;51.460;7.150;2023-04-01T22:11:27;8.10;99.90
2929;DHT22;1474;51.460;7.150;2023-04-01T22:14:33;8.00;99.90
2929;DHT22;1474;51.460;7.150;2023-04-01T22:17:21;7.90;99.90
2929;DHT22;1474;51.460;7.150;2023-04-01T22:23:14;7.90;99.90
2929;DHT22;1474;51.460;7.150;2023-04-01T22:25:49;7.90;99.90
2929;DHT22;1474;51.460;7.150;2023-04-01T22:28:24;7.80;99.90
2929;DHT22;1474;51.460;7.150;2023-04-01T22:31:00;7.80;99.90
2929;DHT22;1474;51.460;7.150;2023-04-01T22:43:55;7.80;99.90
2929;DHT22;1474;51.460;7.150;2023-04-01T22:46:49;7.80;99.90
2929;DHT22;1474;51.460;7.150;2023-04-01T22:49:39;7.70;99.90
2929;DHT22;1474;51.460;7.150;2023-04-01T22:54:58;7.60;99.90
2929;DHT22;1474;51.460;7.150;2023-04-01T23:00:34;7.50;99.90
2929;DHT22;1474;51.460;7.150;2023-04-01T23:05:30;7.50;99.90
2929;DHT22;1474;51.460;7.150;2023-04-01T23:13:22;7.50;99.90
2929;DHT22;1474;51.460;7.150;2023-04-01T23:15:52;7.50;99.90
2929;DHT22;1474;51.460;7.150;2023-04-01T23:26:56;7.60;99.90
2929;DHT22;1474;51.460;7.150;2023-04-01T23:29:24;7.50;99.90
2929;DHT22;1474;51.460;7.150;2023-04-01T23:31:59;7.40;99.90
2929;DHT22;1474;51.460;7.150;2023-04-01T23:34:32;7.40;99.90
2929;DHT22;1474;51.460;7.150;2023-04-01T23:37:02;7.40;99.90
2929;DHT22;1474;51.460;7.150;2023-04-01T23:39:32;7.40;99.90
2929;DHT22;1474;51.460;7.150;2023-04-01T23:44:30;7.30;99.90
2929;DHT22;1474;51.460;7.150;2023-04-01T23:46:57;7.30;99.90
2929;DHT22;1474;51.460;7.150;2023-04-01T23:49:30;7.30;99.90
2929;DHT22;1474;51.460;7.150;2023-04-01T23:51:59;7.30;99.90
2929;DHT22;1474;51.460;7.150;2023-04-01T23:54:34;7.30;99.90
2929;DHT22;1474;51.460;7.150;2023-04-01T23:57:15;7.20;99.90
2929;DHT22;1474;51.460;7.150;2023-04-01T23:59:43;7.10;99.90
